createdAt,value
2023-02-27T00:00:51.359Z,1022.05
2023-02-27T00:01:51.351Z,1022.01
2023-02-27T00:02:51.389Z,1022.03
2023-02-27T00:03:51.370Z,1022.09
2023-02-27T00:04:51.325Z,1022.06
2023-02-27T00:05:51.464Z,1022.10
2023-02-27T00:06:51.309Z,1022.10
2023-02-27T00:07:51.301Z,1022.09
2023-02-27T00:08:51.358Z,1022.10
2023-02-27T00:09:51.280Z,1022.08
2023-02-27T00:10:51.286Z,1022.11
2023-02-27T00:11:51.263Z,1022.12
2023-02-27T00:12:51.256Z,1022.11
2023-02-27T00:13:51.267Z,1022.08
2023-02-27T00:14:51.239Z,1022.10
2023-02-27T00:15:51.269Z,1022.07
2023-02-27T00:16:51.237Z,1022.13
2023-02-27T00:17:51.222Z,1022.11
2023-02-27T00:18:51.208Z,1022.09
2023-02-27T00:19:51.197Z,1022.12
2023-02-27T00:20:51.194Z,1022.10
2023-02-27T00:21:51.180Z,1022.10
2023-02-27T00:22:51.174Z,1022.06
2023-02-27T00:23:51.162Z,1022.06
2023-02-27T00:24:51.165Z,1022.08
2023-02-27T00:25:51.148Z,1022.06
2023-02-27T00:26:51.140Z,1022.08
2023-02-27T00:27:51.141Z,1022.05
2023-02-27T00:28:51.129Z,1022.08
2023-02-27T00:29:51.132Z,1022.10
2023-02-27T00:30:51.185Z,1022.06
2023-02-27T00:31:51.225Z,1022.07
2023-02-27T00:32:51.091Z,1022.05
2023-02-27T00:33:51.080Z,1022.04
2023-02-27T00:34:51.071Z,1022.02
2023-02-27T00:35:51.063Z,1022.02
2023-02-27T00:36:51.055Z,1022.03
2023-02-27T00:37:51.046Z,1022.01
2023-02-27T00:38:51.038Z,1022.04
2023-02-27T00:39:51.027Z,1022.03
2023-02-27T00:40:51.020Z,1022.01
2023-02-27T00:41:51.012Z,1022.02
2023-02-27T00:42:51.005Z,1022.04
2023-02-27T00:43:50.995Z,1022.00
2023-02-27T00:44:50.991Z,1022.04
2023-02-27T00:45:50.995Z,1022.02
2023-02-27T00:46:50.997Z,1022.03
2023-02-27T00:47:50.970Z,1021.98
2023-02-27T00:48:50.954Z,1022.00
2023-02-27T00:49:50.942Z,1022.01
2023-02-27T00:50:50.947Z,1022.04
2023-02-27T00:51:50.927Z,1022.06
2023-02-27T00:52:50.921Z,1022.04
2023-02-27T00:53:50.912Z,1022.06
2023-02-27T00:54:50.903Z,1022.04
2023-02-27T00:55:50.901Z,1022.07
2023-02-27T00:56:50.885Z,1022.06
2023-02-27T00:57:50.914Z,1022.02
2023-02-27T00:58:50.868Z,1022.08
2023-02-27T00:59:50.858Z,1022.09
2023-02-27T01:00:50.886Z,1022.09
2023-02-27T01:01:50.861Z,1022.10
2023-02-27T01:02:50.893Z,1022.09
2023-02-27T01:03:50.828Z,1022.10
2023-02-27T01:04:50.821Z,1022.03
2023-02-27T01:05:50.815Z,1022.07
2023-02-27T01:06:51.004Z,1022.04
2023-02-27T01:07:50.797Z,1022.05
2023-02-27T01:08:50.795Z,1022.00
2023-02-27T01:09:50.785Z,1022.01
2023-02-27T01:10:50.774Z,1021.99
2023-02-27T01:11:50.776Z,1022.05
2023-02-27T01:12:50.755Z,1022.05
2023-02-27T01:13:50.746Z,1022.04
2023-02-27T01:14:50.744Z,1022.03
2023-02-27T01:15:50.729Z,1022.00
2023-02-27T01:16:50.723Z,1021.99
2023-02-27T01:17:50.736Z,1021.97
2023-02-27T01:18:50.706Z,1021.95
2023-02-27T01:19:50.706Z,1022.02
2023-02-27T01:20:50.691Z,1021.97
2023-02-27T01:21:50.684Z,1022.01
2023-02-27T01:22:50.675Z,1021.96
2023-02-27T01:23:50.669Z,1021.99
2023-02-27T01:24:50.656Z,1022.00
2023-02-27T01:25:50.653Z,1022.01
2023-02-27T01:26:50.642Z,1021.98
2023-02-27T01:27:50.630Z,1021.98
2023-02-27T01:28:50.636Z,1021.98
2023-02-27T01:29:50.613Z,1021.96
2023-02-27T01:30:50.620Z,1021.97
2023-02-27T01:31:50.701Z,1021.94
2023-02-27T01:32:50.594Z,1021.91
2023-02-27T01:33:50.600Z,1021.92
2023-02-27T01:34:50.574Z,1021.91
2023-02-27T01:35:50.572Z,1021.91
2023-02-27T01:36:50.559Z,1021.93
2023-02-27T01:37:50.551Z,1021.90
2023-02-27T01:38:50.542Z,1021.92
2023-02-27T01:39:50.536Z,1021.94
2023-02-27T01:40:50.529Z,1021.97
2023-02-27T01:41:50.520Z,1021.93
2023-02-27T01:42:50.506Z,1021.91
2023-02-27T01:43:50.495Z,1021.95
2023-02-27T01:44:50.489Z,1021.95
2023-02-27T01:45:50.541Z,1022.00
2023-02-27T01:46:50.471Z,1021.97
2023-02-27T01:47:50.464Z,1021.98
2023-02-27T01:48:50.456Z,1021.99
2023-02-27T01:49:50.469Z,1021.98
2023-02-27T01:50:50.439Z,1021.96
2023-02-27T01:51:50.430Z,1021.99
2023-02-27T01:52:50.430Z,1022.02
2023-02-27T01:53:50.414Z,1021.98
2023-02-27T01:54:50.405Z,1022.00
2023-02-27T01:55:50.401Z,1022.02
2023-02-27T01:56:50.388Z,1021.99
2023-02-27T01:57:50.378Z,1022.04
2023-02-27T01:58:50.379Z,1022.00
2023-02-27T01:59:50.361Z,1022.04
2023-02-27T02:00:50.424Z,1022.05
2023-02-27T02:01:50.369Z,1022.02
2023-02-27T02:02:50.345Z,1022.05
2023-02-27T02:03:50.332Z,1022.05
2023-02-27T02:04:50.328Z,1022.02
2023-02-27T02:05:50.334Z,1022.05
2023-02-27T02:06:50.508Z,1022.03
2023-02-27T02:07:50.310Z,1022.02
2023-02-27T02:08:50.296Z,1021.99
2023-02-27T02:09:50.280Z,1022.01
2023-02-27T02:10:50.278Z,1022.01
2023-02-27T02:11:50.268Z,1022.02
2023-02-27T02:12:50.257Z,1022.01
2023-02-27T02:13:50.248Z,1021.99
2023-02-27T02:14:50.245Z,1022.00
2023-02-27T02:15:50.237Z,1022.04
2023-02-27T02:16:50.290Z,1021.99
2023-02-27T02:17:50.225Z,1021.97
2023-02-27T02:18:50.208Z,1021.96
2023-02-27T02:19:50.204Z,1021.97
2023-02-27T02:20:50.189Z,1021.97
2023-02-27T02:21:50.207Z,1021.96
2023-02-27T02:22:50.183Z,1021.96
2023-02-27T02:23:50.169Z,1021.94
2023-02-27T02:24:50.167Z,1021.95
2023-02-27T02:25:50.152Z,1021.96
2023-02-27T02:26:50.141Z,1021.97
2023-02-27T02:27:50.133Z,1021.97
2023-02-27T02:28:50.125Z,1021.97
2023-02-27T02:29:50.114Z,1021.96
2023-02-27T02:30:50.165Z,1021.96
2023-02-27T02:31:50.313Z,1021.95
2023-02-27T02:32:50.099Z,1021.97
2023-02-27T02:33:50.080Z,1021.95
2023-02-27T02:34:50.076Z,1021.95
2023-02-27T02:35:50.065Z,1021.96
2023-02-27T02:36:50.062Z,1021.97
2023-02-27T02:37:50.067Z,1021.93
2023-02-27T02:38:50.047Z,1021.93
2023-02-27T02:39:50.040Z,1021.90
2023-02-27T02:40:50.025Z,1021.90
2023-02-27T02:41:50.019Z,1021.83
2023-02-27T02:42:51.347Z,1021.85
2023-02-27T02:43:50.010Z,1021.87
2023-02-27T02:44:49.994Z,1021.87
2023-02-27T02:45:50.072Z,1021.85
2023-02-27T02:46:49.984Z,1021.84
2023-02-27T02:47:49.971Z,1021.84
2023-02-27T02:48:49.962Z,1021.83
2023-02-27T02:49:49.951Z,1021.83
2023-02-27T02:50:49.944Z,1021.86
2023-02-27T02:51:49.935Z,1021.88
2023-02-27T02:52:49.928Z,1021.86
2023-02-27T02:53:49.937Z,1021.83
2023-02-27T02:54:49.910Z,1021.84
2023-02-27T02:55:49.902Z,1021.85
2023-02-27T02:56:49.894Z,1021.84
2023-02-27T02:57:49.883Z,1021.88
2023-02-27T02:58:49.878Z,1021.87
2023-02-27T02:59:49.872Z,1021.82
2023-02-27T03:00:49.859Z,1021.82
2023-02-27T03:01:49.891Z,1021.84
2023-02-27T03:02:49.843Z,1021.86
2023-02-27T03:03:49.838Z,1021.82
2023-02-27T03:04:49.840Z,1021.84
2023-02-27T03:05:49.822Z,1021.84
2023-02-27T03:06:49.814Z,1021.86
2023-02-27T03:07:50.221Z,1021.82
2023-02-27T03:08:49.795Z,1021.83
2023-02-27T03:09:49.817Z,1021.84
2023-02-27T03:10:49.775Z,1021.87
2023-02-27T03:11:49.778Z,1021.85
2023-02-27T03:12:49.763Z,1021.88
2023-02-27T03:13:49.758Z,1021.87
2023-02-27T03:14:49.751Z,1021.90
2023-02-27T03:15:49.758Z,1021.88
2023-02-27T03:16:49.728Z,1021.96
2023-02-27T03:17:49.719Z,1021.98
2023-02-27T03:18:49.712Z,1021.96
2023-02-27T03:19:49.702Z,1022.01
2023-02-27T03:20:49.693Z,1022.04
2023-02-27T03:21:49.697Z,1022.02
2023-02-27T03:22:49.690Z,1022.06
2023-02-27T03:23:49.669Z,1022.02
2023-02-27T03:24:49.662Z,1022.03
2023-02-27T03:25:49.671Z,1022.02
2023-02-27T03:26:49.640Z,1022.09
2023-02-27T03:27:49.634Z,1022.06
2023-02-27T03:28:49.627Z,1022.09
2023-02-27T03:29:49.631Z,1022.08
2023-02-27T03:30:49.759Z,1022.04
2023-02-27T03:31:49.768Z,1022.04
2023-02-27T03:32:49.590Z,1022.09
2023-02-27T03:33:49.595Z,1022.08
2023-02-27T03:34:49.596Z,1022.15
2023-02-27T03:35:49.597Z,1022.12
2023-02-27T03:36:49.651Z,1022.14
2023-02-27T03:37:49.598Z,1022.14
2023-02-27T03:38:49.548Z,1022.11
2023-02-27T03:39:49.554Z,1022.16
2023-02-27T03:40:49.564Z,1022.16
2023-02-27T03:41:49.588Z,1022.17
2023-02-27T03:42:49.542Z,1022.15
2023-02-27T03:43:49.542Z,1022.20
2023-02-27T03:44:51.592Z,1022.20
2023-02-27T03:45:49.482Z,1022.21
2023-02-27T03:46:49.471Z,1022.22
2023-02-27T03:47:49.463Z,1022.20
2023-02-27T03:48:49.464Z,1022.19
2023-02-27T03:49:49.446Z,1022.18
2023-02-27T03:50:49.437Z,1022.16
2023-02-27T03:51:49.433Z,1022.19
2023-02-27T03:52:49.424Z,1022.22
2023-02-27T03:53:49.440Z,1022.19
2023-02-27T03:54:49.403Z,1022.25
2023-02-27T03:55:49.427Z,1022.20
2023-02-27T03:56:49.389Z,1022.22
2023-02-27T03:57:49.453Z,1022.21
2023-02-27T03:58:49.369Z,1022.24
2023-02-27T03:59:49.365Z,1022.22
2023-02-27T04:00:49.381Z,1022.25
2023-02-27T04:01:49.396Z,1022.25
2023-02-27T04:02:49.358Z,1022.30
2023-02-27T04:03:49.335Z,1022.24
2023-02-27T04:04:49.325Z,1022.25
2023-02-27T04:05:49.310Z,1022.26
2023-02-27T04:06:49.307Z,1022.27
2023-02-27T04:07:49.296Z,1022.23
2023-02-27T04:08:49.284Z,1022.24
2023-02-27T04:09:49.294Z,1022.30
2023-02-27T04:10:49.271Z,1022.30
2023-02-27T04:11:49.275Z,1022.28
2023-02-27T04:12:49.263Z,1022.30
2023-02-27T04:13:49.271Z,1022.30
2023-02-27T04:14:49.232Z,1022.32
2023-02-27T04:15:49.255Z,1022.33
2023-02-27T04:16:49.221Z,1022.37
2023-02-27T04:17:49.209Z,1022.35
2023-02-27T04:18:49.200Z,1022.37
2023-02-27T04:19:49.195Z,1022.38
2023-02-27T04:20:49.183Z,1022.33
2023-02-27T04:21:49.177Z,1022.33
2023-02-27T04:22:49.169Z,1022.39
2023-02-27T04:23:49.160Z,1022.41
2023-02-27T04:24:49.150Z,1022.39
2023-02-27T04:25:49.141Z,1022.38
2023-02-27T04:26:49.136Z,1022.38
2023-02-27T04:27:49.125Z,1022.37
2023-02-27T04:28:49.116Z,1022.37
2023-02-27T04:29:49.134Z,1022.40
2023-02-27T04:30:49.127Z,1022.38
2023-02-27T04:31:49.308Z,1022.41
2023-02-27T04:32:49.120Z,1022.35
2023-02-27T04:33:49.090Z,1022.42
2023-02-27T04:34:49.073Z,1022.41
2023-02-27T04:35:49.061Z,1022.40
2023-02-27T04:36:49.052Z,1022.40
2023-02-27T04:37:49.051Z,1022.42
2023-02-27T04:38:49.041Z,1022.43
2023-02-27T04:39:49.030Z,1022.45
2023-02-27T04:40:49.020Z,1022.43
2023-02-27T04:41:49.010Z,1022.45
2023-02-27T04:42:49.003Z,1022.38
2023-02-27T04:43:48.998Z,1022.39
2023-02-27T04:44:48.988Z,1022.39
2023-02-27T04:45:49.047Z,1022.39
2023-02-27T04:46:48.969Z,1022.39
2023-02-27T04:47:48.966Z,1022.37
2023-02-27T04:48:48.952Z,1022.43
2023-02-27T04:49:48.945Z,1022.42
2023-02-27T04:50:48.935Z,1022.41
2023-02-27T04:51:48.930Z,1022.39
2023-02-27T04:52:48.917Z,1022.41
2023-02-27T04:53:48.916Z,1022.42
2023-02-27T04:54:48.904Z,1022.43
2023-02-27T04:55:48.894Z,1022.47
2023-02-27T04:56:48.882Z,1022.46
2023-02-27T04:57:48.875Z,1022.49
2023-02-27T04:58:48.866Z,1022.51
2023-02-27T04:59:48.864Z,1022.48
2023-02-27T05:00:48.848Z,1022.50
2023-02-27T05:01:48.986Z,1022.51
2023-02-27T05:02:48.876Z,1022.48
2023-02-27T05:03:48.823Z,1022.45
2023-02-27T05:04:48.820Z,1022.49
2023-02-27T05:05:48.806Z,1022.50
2023-02-27T05:06:48.795Z,1022.50
2023-02-27T05:07:48.797Z,1022.52
2023-02-27T05:08:48.793Z,1022.53
2023-02-27T05:09:48.770Z,1022.53
2023-02-27T05:10:48.763Z,1022.55
2023-02-27T05:11:48.753Z,1022.55
2023-02-27T05:12:48.749Z,1022.55
2023-02-27T05:13:48.739Z,1022.57
2023-02-27T05:14:48.730Z,1022.51
2023-02-27T05:15:48.777Z,1022.49
2023-02-27T05:16:48.765Z,1022.55
2023-02-27T05:17:48.781Z,1022.52
2023-02-27T05:18:48.691Z,1022.50
2023-02-27T05:19:48.692Z,1022.52
2023-02-27T05:20:48.673Z,1022.50
2023-02-27T05:21:48.671Z,1022.54
2023-02-27T05:22:48.656Z,1022.54
2023-02-27T05:23:48.649Z,1022.56
2023-02-27T05:24:48.654Z,1022.59
2023-02-27T05:25:48.647Z,1022.60
2023-02-27T05:26:48.652Z,1022.60
2023-02-27T05:27:48.618Z,1022.64
2023-02-27T05:28:48.605Z,1022.64
2023-02-27T05:29:48.627Z,1022.69
2023-02-27T05:30:48.585Z,1022.68
2023-02-27T05:31:48.732Z,1022.67
2023-02-27T05:32:48.578Z,1022.67
2023-02-27T05:33:48.580Z,1022.69
2023-02-27T05:34:48.571Z,1022.70
2023-02-27T05:35:48.643Z,1022.73
2023-02-27T05:36:48.535Z,1022.75
2023-02-27T05:37:48.522Z,1022.74
2023-02-27T05:38:48.526Z,1022.75
2023-02-27T05:39:48.543Z,1022.78
2023-02-27T05:40:48.502Z,1022.77
2023-02-27T05:41:48.491Z,1022.79
2023-02-27T05:42:48.477Z,1022.79
2023-02-27T05:43:48.472Z,1022.83
2023-02-27T05:44:48.458Z,1022.82
2023-02-27T05:45:48.479Z,1022.84
2023-02-27T05:46:48.440Z,1022.83
2023-02-27T05:47:48.437Z,1022.82
2023-02-27T05:48:48.430Z,1022.81
2023-02-27T05:49:48.534Z,1022.76
2023-02-27T05:50:48.405Z,1022.78
2023-02-27T05:51:48.414Z,1022.77
2023-02-27T05:52:48.405Z,1022.83
2023-02-27T05:53:48.381Z,1022.84
2023-02-27T05:54:48.377Z,1022.87
2023-02-27T05:55:48.380Z,1022.85
2023-02-27T05:56:48.358Z,1022.87
2023-02-27T05:57:48.348Z,1022.87
2023-02-27T05:58:48.341Z,1022.87
2023-02-27T05:59:48.331Z,1022.88
2023-02-27T06:00:48.325Z,1022.88
2023-02-27T06:01:48.321Z,1022.89
2023-02-27T06:02:48.302Z,1022.88
2023-02-27T06:03:48.311Z,1022.89
2023-02-27T06:04:48.286Z,1022.92
2023-02-27T06:05:48.298Z,1022.92
2023-02-27T06:06:48.270Z,1022.94
2023-02-27T06:07:48.266Z,1022.94
2023-02-27T06:08:48.258Z,1022.93
2023-02-27T06:09:48.243Z,1022.95
2023-02-27T06:10:48.233Z,1022.94
2023-02-27T06:11:48.230Z,1023.00
2023-02-27T06:12:48.430Z,1023.05
2023-02-27T06:13:48.210Z,1023.01
2023-02-27T06:14:48.199Z,1023.01
2023-02-27T06:15:48.191Z,1023.01
2023-02-27T06:16:48.263Z,1023.06
2023-02-27T06:17:48.174Z,1023.08
2023-02-27T06:18:48.172Z,1023.07
2023-02-27T06:19:48.162Z,1023.08
2023-02-27T06:20:48.190Z,1023.09
2023-02-27T06:21:48.250Z,1023.07
2023-02-27T06:22:48.137Z,1023.08
2023-02-27T06:23:48.122Z,1023.11
2023-02-27T06:24:48.110Z,1023.10
2023-02-27T06:25:48.105Z,1023.12
2023-02-27T06:26:48.092Z,1023.15
2023-02-27T06:27:48.086Z,1023.15
2023-02-27T06:28:48.077Z,1023.19
2023-02-27T06:29:48.065Z,1023.22
2023-02-27T06:30:48.109Z,1023.23
2023-02-27T06:31:48.126Z,1023.23
2023-02-27T06:32:48.037Z,1023.26
2023-02-27T06:33:48.040Z,1023.28
2023-02-27T06:34:48.022Z,1023.31
2023-02-27T06:35:48.046Z,1023.32
2023-02-27T06:36:47.999Z,1023.30
2023-02-27T06:37:48.009Z,1023.32
2023-02-27T06:38:47.988Z,1023.36
2023-02-27T06:39:47.972Z,1023.34
2023-02-27T06:40:47.962Z,1023.33
2023-02-27T06:41:47.954Z,1023.31
2023-02-27T06:42:47.951Z,1023.32
2023-02-27T06:43:47.941Z,1023.34
2023-02-27T06:44:47.926Z,1023.37
2023-02-27T06:45:47.960Z,1023.39
2023-02-27T06:46:47.906Z,1023.37
2023-02-27T06:47:47.911Z,1023.35
2023-02-27T06:48:47.890Z,1023.36
2023-02-27T06:49:47.885Z,1023.40
2023-02-27T06:50:47.878Z,1023.42
2023-02-27T06:51:47.862Z,1023.43
2023-02-27T06:52:47.861Z,1023.40
2023-02-27T06:53:47.861Z,1023.40
2023-02-27T06:54:47.838Z,1023.44
2023-02-27T06:55:47.830Z,1023.42
2023-02-27T06:56:47.816Z,1023.46
2023-02-27T06:57:47.806Z,1023.43
2023-02-27T06:58:47.803Z,1023.45
2023-02-27T06:59:47.789Z,1023.42
2023-02-27T07:00:47.781Z,1023.44
2023-02-27T07:01:47.825Z,1023.44
2023-02-27T07:02:47.763Z,1023.38
2023-02-27T07:03:47.755Z,1023.41
2023-02-27T07:04:47.778Z,1023.40
2023-02-27T07:05:47.736Z,1023.43
2023-02-27T07:07:33.070Z,1023.45
2023-02-27T07:07:47.723Z,1023.43
2023-02-27T07:09:01.530Z,1023.47
2023-02-27T07:09:47.723Z,1023.50
2023-02-27T07:10:47.696Z,1023.51
2023-02-27T07:11:47.693Z,1023.51
2023-02-27T07:12:48.027Z,1023.50
2023-02-27T07:13:47.665Z,1023.51
2023-02-27T07:14:47.658Z,1023.55
2023-02-27T07:15:47.695Z,1023.57
2023-02-27T07:16:47.641Z,1023.57
2023-02-27T07:17:47.632Z,1023.59
2023-02-27T07:18:47.625Z,1023.65
2023-02-27T07:19:47.623Z,1023.63
2023-02-27T07:20:47.608Z,1023.67
2023-02-27T07:21:47.594Z,1023.69
2023-02-27T07:22:47.583Z,1023.67
2023-02-27T07:23:47.581Z,1023.67
2023-02-27T07:24:47.573Z,1023.71
2023-02-27T07:25:47.576Z,1023.69
2023-02-27T07:26:47.548Z,1023.71
2023-02-27T07:27:47.544Z,1023.71
2023-02-27T07:28:47.532Z,1023.70
2023-02-27T07:29:47.524Z,1023.67
2023-02-27T07:30:47.575Z,1023.71
2023-02-27T07:31:47.533Z,1023.68
2023-02-27T07:32:47.504Z,1023.72
2023-02-27T07:33:47.488Z,1023.71
2023-02-27T07:34:47.474Z,1023.74
2023-02-27T07:35:47.509Z,1023.72
2023-02-27T07:36:47.461Z,1023.74
2023-02-27T07:37:47.455Z,1023.73
2023-02-27T07:38:47.444Z,1023.73
2023-02-27T07:39:47.439Z,1023.76
2023-02-27T07:40:47.434Z,1023.74
2023-02-27T07:41:47.446Z,1023.77
2023-02-27T07:42:47.418Z,1023.78
2023-02-27T07:43:47.399Z,1023.83
2023-02-27T07:44:47.394Z,1023.81
2023-02-27T07:45:47.381Z,1023.82
2023-02-27T07:46:47.521Z,1023.83
2023-02-27T07:47:47.366Z,1023.83
2023-02-27T07:48:47.358Z,1023.81
2023-02-27T07:49:47.352Z,1023.87
2023-02-27T07:50:47.341Z,1023.84
2023-02-27T07:51:47.343Z,1023.83
2023-02-27T07:52:47.323Z,1023.84
2023-02-27T07:53:47.314Z,1023.86
2023-02-27T07:54:47.306Z,1023.89
2023-02-27T07:55:47.297Z,1023.91
2023-02-27T07:56:47.312Z,1023.89
2023-02-27T07:57:47.303Z,1023.95
2023-02-27T07:58:47.279Z,1023.89
2023-02-27T07:59:47.264Z,1023.88
2023-02-27T08:00:47.256Z,1023.93
2023-02-27T08:01:47.245Z,1023.94
2023-02-27T08:02:47.268Z,1023.90
2023-02-27T08:03:47.245Z,1023.93
2023-02-27T08:04:47.256Z,1023.91
2023-02-27T08:05:47.208Z,1023.94
2023-02-27T08:06:47.211Z,1023.94
2023-02-27T08:07:47.192Z,1023.95
2023-02-27T08:08:47.206Z,1023.94
2023-02-27T08:09:47.184Z,1023.89
2023-02-27T08:10:47.192Z,1023.88
2023-02-27T08:11:48.972Z,1023.87
2023-02-27T08:12:47.354Z,1023.84
2023-02-27T08:14:03.239Z,1023.84
2023-02-27T08:14:47.136Z,1023.84
2023-02-27T08:15:47.195Z,1023.81
2023-02-27T08:16:47.120Z,1023.84
2023-02-27T08:17:47.103Z,1023.80
2023-02-27T08:18:47.100Z,1023.81
2023-02-27T08:19:47.091Z,1023.80
2023-02-27T08:20:47.088Z,1023.79
2023-02-27T08:21:47.068Z,1023.82
2023-02-27T08:22:47.070Z,1023.77
2023-02-27T08:23:47.053Z,1023.77
2023-02-27T08:24:47.049Z,1023.78
2023-02-27T08:25:47.046Z,1023.77
2023-02-27T08:26:47.027Z,1023.74
2023-02-27T08:27:47.017Z,1023.76
2023-02-27T08:28:47.009Z,1023.75
2023-02-27T08:29:47.023Z,1023.77
2023-02-27T08:30:46.992Z,1023.79
2023-02-27T08:31:47.176Z,1023.73
2023-02-27T08:32:46.976Z,1023.75
2023-02-27T08:33:48.334Z,1023.71
2023-02-27T08:34:46.955Z,1023.74
2023-02-27T08:35:46.973Z,1023.73
2023-02-27T08:36:46.937Z,1023.78
2023-02-27T08:37:46.930Z,1023.76
2023-02-27T08:38:46.928Z,1023.81
2023-02-27T08:39:46.916Z,1023.84
2023-02-27T08:40:46.905Z,1023.85
2023-02-27T08:41:46.891Z,1023.82
2023-02-27T08:42:46.888Z,1023.84
2023-02-27T08:43:46.875Z,1023.82
2023-02-27T08:44:46.869Z,1023.86
2023-02-27T08:45:46.926Z,1023.88
2023-02-27T08:46:46.849Z,1023.85
2023-02-27T08:47:46.840Z,1023.86
2023-02-27T08:48:46.837Z,1023.84
2023-02-27T08:49:46.858Z,1023.85
2023-02-27T08:50:46.859Z,1023.82
2023-02-27T08:51:46.806Z,1023.85
2023-02-27T08:52:46.801Z,1023.84
2023-02-27T08:53:46.789Z,1023.83
2023-02-27T08:54:46.781Z,1023.81
2023-02-27T08:55:46.773Z,1023.84
2023-02-27T08:56:46.774Z,1023.80
2023-02-27T08:57:46.752Z,1023.82
2023-02-27T08:58:46.763Z,1023.90
2023-02-27T08:59:46.818Z,1023.89
2023-02-27T09:00:46.813Z,1023.90
2023-02-27T09:01:46.742Z,1023.91
2023-02-27T09:02:46.773Z,1023.84
2023-02-27T09:03:46.710Z,1023.87
2023-02-27T09:04:46.706Z,1023.87
2023-02-27T09:05:46.693Z,1023.90
2023-02-27T09:06:46.683Z,1023.87
2023-02-27T09:07:46.677Z,1023.92
2023-02-27T09:08:46.677Z,1023.90
2023-02-27T09:10:46.651Z,1023.90
2023-02-27T09:11:46.643Z,1023.96
2023-02-27T09:12:46.638Z,1023.97
2023-02-27T09:13:46.633Z,1024.01
2023-02-27T09:14:46.626Z,1023.96
2023-02-27T09:15:46.621Z,1023.96
2023-02-27T09:16:46.620Z,1023.99
2023-02-27T09:17:46.636Z,1023.98
2023-02-27T09:18:46.589Z,1024.02
2023-02-27T09:19:46.578Z,1024.04
2023-02-27T09:20:46.567Z,1023.99
2023-02-27T09:21:46.557Z,1024.00
2023-02-27T09:22:46.560Z,1024.04
2023-02-27T09:23:46.542Z,1024.02
2023-02-27T09:24:46.543Z,1024.08
2023-02-27T09:25:46.536Z,1024.07
2023-02-27T09:26:46.922Z,1024.04
2023-02-27T09:27:46.517Z,1024.02
2023-02-27T09:28:46.505Z,1024.04
2023-02-27T09:29:46.508Z,1023.99
2023-02-27T09:30:46.484Z,1024.00
2023-02-27T09:31:46.641Z,1024.00
2023-02-27T09:32:46.485Z,1024.00
2023-02-27T09:33:46.484Z,1024.04
2023-02-27T09:34:46.452Z,1024.07
2023-02-27T09:35:46.501Z,1024.01
2023-02-27T09:36:46.434Z,1024.01
2023-02-27T09:37:46.626Z,1024.08
2023-02-27T09:38:46.419Z,1024.03
2023-02-27T09:39:46.617Z,1024.05
2023-02-27T09:40:46.403Z,1023.98
2023-02-27T09:41:46.396Z,1024.05
2023-02-27T09:42:46.546Z,1024.08
2023-02-27T09:43:46.377Z,1024.06
2023-02-27T09:44:47.517Z,1024.03
2023-02-27T09:45:46.412Z,1024.06
2023-02-27T09:46:46.367Z,1024.03
2023-02-27T09:47:46.350Z,1024.02
2023-02-27T09:48:46.351Z,1024.06
2023-02-27T09:49:46.377Z,1024.08
2023-02-27T09:50:46.320Z,1024.13
2023-02-27T09:51:46.309Z,1024.10
2023-02-27T09:52:46.312Z,1024.12
2023-02-27T09:53:46.296Z,1024.12
2023-02-27T09:54:46.286Z,1024.16
2023-02-27T09:55:46.285Z,1024.13
2023-02-27T09:56:46.272Z,1024.12
2023-02-27T09:57:46.272Z,1024.12
2023-02-27T09:58:46.259Z,1024.10
2023-02-27T09:59:46.245Z,1024.06
2023-02-27T10:00:46.239Z,1024.16
2023-02-27T10:01:46.230Z,1024.09
2023-02-27T10:02:46.227Z,1024.11
2023-02-27T10:03:46.217Z,1024.06
2023-02-27T10:04:46.213Z,1024.03
2023-02-27T10:05:46.215Z,1024.10
2023-02-27T10:06:46.192Z,1024.06
2023-02-27T10:07:46.188Z,1024.08
2023-02-27T10:08:46.174Z,1024.07
2023-02-27T10:09:46.164Z,1024.09
2023-02-27T10:10:46.156Z,1024.11
2023-02-27T10:11:46.150Z,1024.06
2023-02-27T10:12:46.140Z,1024.06
2023-02-27T10:13:46.136Z,1024.13
2023-02-27T10:14:46.129Z,1024.14
2023-02-27T10:15:46.124Z,1024.06
2023-02-27T10:16:46.150Z,1024.05
2023-02-27T10:17:46.106Z,1024.11
2023-02-27T10:18:46.099Z,1024.09
2023-02-27T10:19:46.095Z,1024.05
2023-02-27T10:20:46.079Z,1024.05
2023-02-27T10:21:46.090Z,1024.08
2023-02-27T10:22:46.068Z,1024.07
2023-02-27T10:23:46.061Z,1024.08
2023-02-27T10:24:46.047Z,1024.13
2023-02-27T10:25:46.040Z,1024.14
2023-02-27T10:26:46.036Z,1024.11
2023-02-27T10:27:46.025Z,1024.09
2023-02-27T10:28:46.020Z,1024.10
2023-02-27T10:29:46.119Z,1024.04
2023-02-27T10:30:46.125Z,1024.11
2023-02-27T10:31:46.065Z,1024.14
2023-02-27T10:32:45.987Z,1024.19
2023-02-27T10:33:45.979Z,1024.15
2023-02-27T10:34:45.969Z,1024.16
2023-02-27T10:35:46.006Z,1024.16
2023-02-27T10:36:45.961Z,1024.19
2023-02-27T10:37:45.966Z,1024.20
2023-02-27T10:38:45.935Z,1024.20
2023-02-27T10:39:45.931Z,1024.22
2023-02-27T10:40:45.943Z,1024.16
2023-02-27T10:41:45.944Z,1024.07
2023-02-27T10:42:45.976Z,1024.07
2023-02-27T10:43:45.924Z,1024.12
2023-02-27T10:44:45.987Z,1024.09
2023-02-27T10:45:45.984Z,1024.16
2023-02-27T10:46:45.998Z,1024.20
2023-02-27T10:47:45.895Z,1024.12
2023-02-27T10:48:45.859Z,1024.15
2023-02-27T10:49:45.847Z,1024.13
2023-02-27T10:50:45.838Z,1024.07
2023-02-27T10:51:45.843Z,1024.19
2023-02-27T10:52:45.820Z,1024.13
2023-02-27T10:53:45.834Z,1024.10
2023-02-27T10:54:45.808Z,1024.15
2023-02-27T10:55:45.808Z,1024.11
2023-02-27T10:56:45.790Z,1024.11
2023-02-27T10:57:45.785Z,1024.15
2023-02-27T10:58:45.773Z,1024.17
2023-02-27T10:59:45.766Z,1024.11
2023-02-27T11:00:45.759Z,1024.08
2023-02-27T11:01:45.814Z,1024.11
2023-02-27T11:02:45.739Z,1024.12
2023-02-27T11:03:45.736Z,1024.16
2023-02-27T11:04:45.777Z,1024.12
2023-02-27T11:05:45.721Z,1024.15
2023-02-27T11:06:45.708Z,1024.16
2023-02-27T11:07:45.702Z,1024.11
2023-02-27T11:08:45.712Z,1024.16
2023-02-27T11:09:45.710Z,1024.13
2023-02-27T11:10:45.678Z,1024.13
2023-02-27T11:11:45.669Z,1024.13
2023-02-27T11:12:45.660Z,1024.12
2023-02-27T11:13:45.655Z,1024.13
2023-02-27T11:14:45.642Z,1024.09
2023-02-27T11:15:45.650Z,1024.05
2023-02-27T11:16:45.627Z,1024.04
2023-02-27T11:17:45.619Z,1024.08
2023-02-27T11:18:45.611Z,1024.10
2023-02-27T11:19:45.620Z,1024.10
2023-02-27T11:20:45.598Z,1024.03
2023-02-27T11:21:45.590Z,1024.06
2023-02-27T11:22:45.583Z,1024.04
2023-02-27T11:23:45.579Z,1023.97
2023-02-27T11:24:45.572Z,1024.02
2023-02-27T11:25:45.582Z,1024.01
2023-02-27T11:26:45.553Z,1023.98
2023-02-27T11:27:45.559Z,1023.98
2023-02-27T11:28:45.547Z,1023.97
2023-02-27T11:29:45.536Z,1023.97
2023-02-27T11:30:45.585Z,1023.92
2023-02-27T11:31:45.638Z,1023.92
2023-02-27T11:32:45.523Z,1023.89
2023-02-27T11:33:45.500Z,1023.84
2023-02-27T11:34:45.525Z,1023.86
2023-02-27T11:35:45.509Z,1023.88
2023-02-27T11:36:45.489Z,1023.82
2023-02-27T11:37:45.468Z,1023.88
2023-02-27T11:38:45.467Z,1023.86
2023-02-27T11:39:45.457Z,1023.84
2023-02-27T11:40:45.448Z,1023.80
2023-02-27T11:41:45.465Z,1023.77
2023-02-27T11:42:45.433Z,1023.72
2023-02-27T11:43:45.422Z,1023.70
2023-02-27T11:44:50.535Z,1023.64
2023-02-27T11:46:14.465Z,1023.69
2023-02-27T11:46:48.529Z,1023.70
2023-02-27T11:47:45.398Z,1023.64
2023-02-27T11:48:45.390Z,1023.65
2023-02-27T11:49:45.380Z,1023.67
2023-02-27T11:50:45.379Z,1023.66
2023-02-27T11:51:45.364Z,1023.67
2023-02-27T11:52:45.359Z,1023.60
2023-02-27T11:53:45.348Z,1023.58
2023-02-27T11:54:45.344Z,1023.63
2023-02-27T11:55:45.334Z,1023.62
2023-02-27T11:56:45.329Z,1023.54
2023-02-27T11:57:45.341Z,1023.58
2023-02-27T11:58:45.317Z,1023.52
2023-02-27T11:59:45.319Z,1023.50
2023-02-27T12:00:45.311Z,1023.52
2023-02-27T12:01:45.306Z,1023.48
2023-02-27T12:02:45.363Z,1023.48
2023-02-27T12:03:45.317Z,1023.45
2023-02-27T12:04:45.274Z,1023.54
2023-02-27T12:05:45.256Z,1023.55
2023-02-27T12:06:45.255Z,1023.57